Saint Francis River (Missouri), Saco (07036100)

StateMissouriLatestPoor (125 cfs)
RiverSaint Francis RiverRatingObservedEstimated
Updated2020-09-23 1:30 (43 minutes ago)Flood - The river is flooding. Obstacles can be treacherous or deadly. The river should be avoided at this stage for casual trips and definitely for the inexperienced. Trips should be attempted only with protective gear and equipment.Flood(none)4443
Discharge125 cfs (median: 45 cfs)High - The river is high and potentially dangerous, especially for the young and / or inexperienced. Normal stream obstacles are sometimes difficult to navigate. Extended distances can be attempted, but canoe travel may not be advisable.High(none)1847
Height2.25 feetGood - Conditions are ideal for a canoe or kayak. Boats typically will drag on fewer than one-quarter of riffles, if at all, and portages are unnecessary or rare. Normal float lengths can be attempted without a problem.Good(none)670
TrendSteady (rising over 24 hours)Low - River is low but can still be floated. Some riffles are okay but most come with significant dragging and might need a portage. Float lengths should be reduced to accommodate low flow, dragging, and portages.Low(none)183
USGSExternal icon USGS Site (External icon Google Maps)Poor - River is too low to float comfortably. Most or all riffles will drag or must be portaged and some obstacles (such as slick shelf rock) cause undue problems. Avoid the river at this stage for casual paddling trips.Poor(none)45

Trending Data

Plot Image

Trips for Saint Francis River (Missouri), Saco (07036100)

DateStartEndDistanceConditionDischargeHeightFishingDetails

A total of 0 rows are displayed.

Condition Descriptions

Fishing Conditions

Fish Species

Notes

Classic Trip List

The classic River Trips application is still available for use. It is updated with the new system using a data retrofit. It is no longer maintained. The original River Trips application is no longer updated (as of 1 Dec 2016) but can be checked for errors or for the condition of the data before it was converted to the new system.

Gauge Data Table

ObservationHeightDischargeMaximum
Discharge
Minimum
Discharge
Mean
Discharge
P05P10P20P25P50
(Median)
P75P80P90P95
2020-09-23 01:30 2.25 125 3530 (1993) 6 (1983) 297 13 22 30 33 45 111 134 300 3300
2020-09-23 01:00 2.25 125 3530 (1993) 6 (1983) 297 13 22 30 33 45 111 134 300 3300
2020-09-23 00:30 2.25 125 3530 (1993) 6 (1983) 297 13 22 30 33 45 111 134 300 3300
2020-09-23 00:00 2.24 123 3530 (1993) 6 (1983) 297 13 22 30 33 45 111 134 300 3300
2020-09-22 23:30 2.24 123 285 (2016) 6 (1983) 73 10 22 24 30 44 96 129 183 251
2020-09-22 23:00 2.24 123 285 (2016) 6 (1983) 73 10 22 24 30 44 96 129 183 251
2020-09-22 22:30 2.24 123 285 (2016) 6 (1983) 73 10 22 24 30 44 96 129 183 251
2020-09-22 22:00 2.24 123 285 (2016) 6 (1983) 73 10 22 24 30 44 96 129 183 251
2020-09-22 21:30 2.24 123 285 (2016) 6 (1983) 73 10 22 24 30 44 96 129 183 251
2020-09-22 21:00 2.24 123 285 (2016) 6 (1983) 73 10 22 24 30 44 96 129 183 251
2020-09-22 20:30 2.24 123 285 (2016) 6 (1983) 73 10 22 24 30 44 96 129 183 251
2020-09-22 20:00 2.23 121 285 (2016) 6 (1983) 73 10 22 24 30 44 96 129 183 251
2020-09-22 19:30 2.22 120 285 (2016) 6 (1983) 73 10 22 24 30 44 96 129 183 251
2020-09-22 19:00 2.22 120 285 (2016) 6 (1983) 73 10 22 24 30 44 96 129 183 251
2020-09-22 18:30 2.23 121 285 (2016) 6 (1983) 73 10 22 24 30 44 96 129 183 251
2020-09-22 18:00 2.23 121 285 (2016) 6 (1983) 73 10 22 24 30 44 96 129 183 251
2020-09-22 17:30 2.22 120 285 (2016) 6 (1983) 73 10 22 24 30 44 96 129 183 251
2020-09-22 17:00 2.23 121 285 (2016) 6 (1983) 73 10 22 24 30 44 96 129 183 251
2020-09-22 16:30 2.23 121 285 (2016) 6 (1983) 73 10 22 24 30 44 96 129 183 251
2020-09-22 16:00 2.23 121 285 (2016) 6 (1983) 73 10 22 24 30 44 96 129 183 251
2020-09-22 15:30 2.23 121 285 (2016) 6 (1983) 73 10 22 24 30 44 96 129 183 251
2020-09-22 15:00 2.23 121 285 (2016) 6 (1983) 73 10 22 24 30 44 96 129 183 251
2020-09-22 14:30 2.23 121 285 (2016) 6 (1983) 73 10 22 24 30 44 96 129 183 251
2020-09-22 14:00 2.23 121 285 (2016) 6 (1983) 73 10 22 24 30 44 96 129 183 251
2020-09-22 13:30 2.23 121 285 (2016) 6 (1983) 73 10 22 24 30 44 96 129 183 251
2020-09-22 13:00 2.23 121 285 (2016) 6 (1983) 73 10 22 24 30 44 96 129 183 251
2020-09-22 12:30 2.23 121 285 (2016) 6 (1983) 73 10 22 24 30 44 96 129 183 251
2020-09-22 12:00 2.24 123 285 (2016) 6 (1983) 73 10 22 24 30 44 96 129 183 251
2020-09-22 11:30 2.23 121 285 (2016) 6 (1983) 73 10 22 24 30 44 96 129 183 251
2020-09-22 11:00 2.23 121 285 (2016) 6 (1983) 73 10 22 24 30 44 96 129 183 251
2020-09-22 10:30 2.23 121 285 (2016) 6 (1983) 73 10 22 24 30 44 96 129 183 251
2020-09-22 10:00 2.23 121 285 (2016) 6 (1983) 73 10 22 24 30 44 96 129 183 251
2020-09-22 09:30 2.22 120 285 (2016) 6 (1983) 73 10 22 24 30 44 96 129 183 251
2020-09-22 09:00 2.23 121 285 (2016) 6 (1983) 73 10 22 24 30 44 96 129 183 251
2020-09-22 08:30 2.23 121 285 (2016) 6 (1983) 73 10 22 24 30 44 96 129 183 251
2020-09-22 08:00 2.23 121 285 (2016) 6 (1983) 73 10 22 24 30 44 96 129 183 251
2020-09-22 07:30 2.23 121 285 (2016) 6 (1983) 73 10 22 24 30 44 96 129 183 251
2020-09-22 07:00 2.23 121 285 (2016) 6 (1983) 73 10 22 24 30 44 96 129 183 251
2020-09-22 06:30 2.23 121 285 (2016) 6 (1983) 73 10 22 24 30 44 96 129 183 251
2020-09-22 06:00 2.22 120 285 (2016) 6 (1983) 73 10 22 24 30 44 96 129 183 251
2020-09-22 05:30 2.23 121 285 (2016) 6 (1983) 73 10 22 24 30 44 96 129 183 251
2020-09-22 05:00 2.23 121 285 (2016) 6 (1983) 73 10 22 24 30 44 96 129 183 251
2020-09-22 04:30 2.23 121 285 (2016) 6 (1983) 73 10 22 24 30 44 96 129 183 251
2020-09-22 04:00 2.23 121 285 (2016) 6 (1983) 73 10 22 24 30 44 96 129 183 251
2020-09-22 03:30 2.23 121 285 (2016) 6 (1983) 73 10 22 24 30 44 96 129 183 251
2020-09-22 03:00 2.23 121 285 (2016) 6 (1983) 73 10 22 24 30 44 96 129 183 251
2020-09-22 02:30 2.23 121 285 (2016) 6 (1983) 73 10 22 24 30 44 96 129 183 251
2020-09-22 02:00 2.23 121 285 (2016) 6 (1983) 73 10 22 24 30 44 96 129 183 251
2020-09-22 01:30 2.23 121 285 (2016) 6 (1983) 73 10 22 24 30 44 96 129 183 251
2020-09-22 01:00 2.23 121 285 (2016) 6 (1983) 73 10 22 24 30 44 96 129 183 251
2020-09-22 00:30 2.23 121 285 (2016) 6 (1983) 73 10 22 24 30 44 96 129 183 251
2020-09-22 00:00 2.23 121 285 (2016) 6 (1983) 73 10 22 24 30 44 96 129 183 251
2020-09-21 23:30 2.23 121 353 (2016) 6 (1983) 79 9 21 25 28 48 121 141 194 286
2020-09-21 23:00 2.23 121 353 (2016) 6 (1983) 79 9 21 25 28 48 121 141 194 286
2020-09-21 22:30 2.23 121 353 (2016) 6 (1983) 79 9 21 25 28 48 121 141 194 286
2020-09-21 22:00 2.23 121 353 (2016) 6 (1983) 79 9 21 25 28 48 121 141 194 286
2020-09-21 21:30 2.23 121 353 (2016) 6 (1983) 79 9 21 25 28 48 121 141 194 286
2020-09-21 21:00 2.23 121 353 (2016) 6 (1983) 79 9 21 25 28 48 121 141 194 286
2020-09-21 20:30 2.23 121 353 (2016) 6 (1983) 79 9 21 25 28 48 121 141 194 286
2020-09-21 20:00 2.23 121 353 (2016) 6 (1983) 79 9 21 25 28 48 121 141 194 286
2020-09-21 19:30 2.24 123 353 (2016) 6 (1983) 79 9 21 25 28 48 121 141 194 286
2020-09-21 19:00 2.23 121 353 (2016) 6 (1983) 79 9 21 25 28 48 121 141 194 286
2020-09-21 18:30 2.24 123 353 (2016) 6 (1983) 79 9 21 25 28 48 121 141 194 286
2020-09-21 18:00 2.24 123 353 (2016) 6 (1983) 79 9 21 25 28 48 121 141 194 286
2020-09-21 17:30 2.24 123 353 (2016) 6 (1983) 79 9 21 25 28 48 121 141 194 286
2020-09-21 17:00 2.24 123 353 (2016) 6 (1983) 79 9 21 25 28 48 121 141 194 286
2020-09-21 16:30 2.24 123 353 (2016) 6 (1983) 79 9 21 25 28 48 121 141 194 286
2020-09-21 16:00 2.24 123 353 (2016) 6 (1983) 79 9 21 25 28 48 121 141 194 286
2020-09-21 15:30 2.24 123 353 (2016) 6 (1983) 79 9 21 25 28 48 121 141 194 286
2020-09-21 15:00 2.21 118 353 (2016) 6 (1983) 79 9 21 25 28 48 121 141 194 286
2020-09-21 14:30 2.23 121 353 (2016) 6 (1983) 79 9 21 25 28 48 121 141 194 286
2020-09-21 14:00 2.23 121 353 (2016) 6 (1983) 79 9 21 25 28 48 121 141 194 286
2020-09-21 13:30 2.24 123 353 (2016) 6 (1983) 79 9 21 25 28 48 121 141 194 286
2020-09-21 13:00 2.25 125 353 (2016) 6 (1983) 79 9 21 25 28 48 121 141 194 286
2020-09-21 12:30 2.25 125 353 (2016) 6 (1983) 79 9 21 25 28 48 121 141 194 286
2020-09-21 12:00 2.24 123 353 (2016) 6 (1983) 79 9 21 25 28 48 121 141 194 286
2020-09-21 11:30 2.25 125 353 (2016) 6 (1983) 79 9 21 25 28 48 121 141 194 286
2020-09-21 11:00 2.25 125 353 (2016) 6 (1983) 79 9 21 25 28 48 121 141 194 286
2020-09-21 10:30 2.24 123 353 (2016) 6 (1983) 79 9 21 25 28 48 121 141 194 286
2020-09-21 10:00 2.24 123 353 (2016) 6 (1983) 79 9 21 25 28 48 121 141 194 286
2020-09-21 09:30 2.24 123 353 (2016) 6 (1983) 79 9 21 25 28 48 121 141 194 286
2020-09-21 09:00 2.23 121 353 (2016) 6 (1983) 79 9 21 25 28 48 121 141 194 286
2020-09-21 08:30 2.24 123 353 (2016) 6 (1983) 79 9 21 25 28 48 121 141 194 286
2020-09-21 08:00 2.23 121 353 (2016) 6 (1983) 79 9 21 25 28 48 121 141 194 286
2020-09-21 07:30 2.24 123 353 (2016) 6 (1983) 79 9 21 25 28 48 121 141 194 286
2020-09-21 07:00 2.24 123 353 (2016) 6 (1983) 79 9 21 25 28 48 121 141 194 286
2020-09-21 06:30 2.24 123 353 (2016) 6 (1983) 79 9 21 25 28 48 121 141 194 286
2020-09-21 06:00 2.24 123 353 (2016) 6 (1983) 79 9 21 25 28 48 121 141 194 286
2020-09-21 05:30 2.24 123 353 (2016) 6 (1983) 79 9 21 25 28 48 121 141 194 286
2020-09-21 05:00 2.24 123 353 (2016) 6 (1983) 79 9 21 25 28 48 121 141 194 286
2020-09-21 04:30 2.24 123 353 (2016) 6 (1983) 79 9 21 25 28 48 121 141 194 286
2020-09-21 04:00 2.23 121 353 (2016) 6 (1983) 79 9 21 25 28 48 121 141 194 286
2020-09-21 03:30 2.24 123 353 (2016) 6 (1983) 79 9 21 25 28 48 121 141 194 286
2020-09-21 03:00 2.24 123 353 (2016) 6 (1983) 79 9 21 25 28 48 121 141 194 286
2020-09-21 02:30 2.24 123 353 (2016) 6 (1983) 79 9 21 25 28 48 121 141 194 286
2020-09-21 02:00 2.24 123 353 (2016) 6 (1983) 79 9 21 25 28 48 121 141 194 286
2020-09-21 01:30 2.24 123 353 (2016) 6 (1983) 79 9 21 25 28 48 121 141 194 286
2020-09-21 01:00 2.24 123 353 (2016) 6 (1983) 79 9 21 25 28 48 121 141 194 286
2020-09-21 00:30 2.24 123 353 (2016) 6 (1983) 79 9 21 25 28 48 121 141 194 286
2020-09-21 00:00 2.24 123 353 (2016) 6 (1983) 79 9 21 25 28 48 121 141 194 286
2020-09-20 23:30 2.24 123 462 (2016) 5 (1983) 95 9 23 26 27 54 110 143 283 397
2020-09-20 23:00 2.24 123 462 (2016) 5 (1983) 95 9 23 26 27 54 110 143 283 397
2020-09-20 22:30 2.24 123 462 (2016) 5 (1983) 95 9 23 26 27 54 110 143 283 397
2020-09-20 22:00 2.24 123 462 (2016) 5 (1983) 95 9 23 26 27 54 110 143 283 397
2020-09-20 21:30 2.25 125 462 (2016) 5 (1983) 95 9 23 26 27 54 110 143 283 397
2020-09-20 21:00 2.24 123 462 (2016) 5 (1983) 95 9 23 26 27 54 110 143 283 397
2020-09-20 20:30 2.24 123 462 (2016) 5 (1983) 95 9 23 26 27 54 110 143 283 397
2020-09-20 20:00 2.25 125 462 (2016) 5 (1983) 95 9 23 26 27 54 110 143 283 397
2020-09-20 19:30 2.24 123 462 (2016) 5 (1983) 95 9 23 26 27 54 110 143 283 397
2020-09-20 19:00 2.25 125 462 (2016) 5 (1983) 95 9 23 26 27 54 110 143 283 397
2020-09-20 18:30 2.25 125 462 (2016) 5 (1983) 95 9 23 26 27 54 110 143 283 397
2020-09-20 18:00 2.26 127 462 (2016) 5 (1983) 95 9 23 26 27 54 110 143 283 397
2020-09-20 17:30 2.25 125 462 (2016) 5 (1983) 95 9 23 26 27 54 110 143 283 397
2020-09-20 17:00 2.26 127 462 (2016) 5 (1983) 95 9 23 26 27 54 110 143 283 397
2020-09-20 16:30 2.26 127 462 (2016) 5 (1983) 95 9 23 26 27 54 110 143 283 397
2020-09-20 16:00 2.26 127 462 (2016) 5 (1983) 95 9 23 26 27 54 110 143 283 397
2020-09-20 15:30 2.26 127 462 (2016) 5 (1983) 95 9 23 26 27 54 110 143 283 397
2020-09-20 15:00 2.27 129 462 (2016) 5 (1983) 95 9 23 26 27 54 110 143 283 397
2020-09-20 14:30 2.26 127 462 (2016) 5 (1983) 95 9 23 26 27 54 110 143 283 397
2020-09-20 14:00 2.26 127 462 (2016) 5 (1983) 95 9 23 26 27 54 110 143 283 397
2020-09-20 13:30 2.27 129 462 (2016) 5 (1983) 95 9 23 26 27 54 110 143 283 397
2020-09-20 13:00 2.27 129 462 (2016) 5 (1983) 95 9 23 26 27 54 110 143 283 397
2020-09-20 12:30 2.26 127 462 (2016) 5 (1983) 95 9 23 26 27 54 110 143 283 397
2020-09-20 12:00 2.26 127 462 (2016) 5 (1983) 95 9 23 26 27 54 110 143 283 397
2020-09-20 11:30 2.26 127 462 (2016) 5 (1983) 95 9 23 26 27 54 110 143 283 397
2020-09-20 11:00 2.26 127 462 (2016) 5 (1983) 95 9 23 26 27 54 110 143 283 397
2020-09-20 10:30 2.26 127 462 (2016) 5 (1983) 95 9 23 26 27 54 110 143 283 397
2020-09-20 10:00 2.26 127 462 (2016) 5 (1983) 95 9 23 26 27 54 110 143 283 397
2020-09-20 09:30 2.25 125 462 (2016) 5 (1983) 95 9 23 26 27 54 110 143 283 397
2020-09-20 09:00 2.25 125 462 (2016) 5 (1983) 95 9 23 26 27 54 110 143 283 397
2020-09-20 08:30 2.25 125 462 (2016) 5 (1983) 95 9 23 26 27 54 110 143 283 397
2020-09-20 08:00 2.25 125 462 (2016) 5 (1983) 95 9 23 26 27 54 110 143 283 397
2020-09-20 07:30 2.25 125 462 (2016) 5 (1983) 95 9 23 26 27 54 110 143 283 397
2020-09-20 07:00 2.25 125 462 (2016) 5 (1983) 95 9 23 26 27 54 110 143 283 397
2020-09-20 06:30 2.25 125 462 (2016) 5 (1983) 95 9 23 26 27 54 110 143 283 397
2020-09-20 06:00 2.25 125 462 (2016) 5 (1983) 95 9 23 26 27 54 110 143 283 397
2020-09-20 05:30 2.25 125 462 (2016) 5 (1983) 95 9 23 26 27 54 110 143 283 397
2020-09-20 05:00 2.25 125 462 (2016) 5 (1983) 95 9 23 26 27 54 110 143 283 397
2020-09-20 04:30 2.25 125 462 (2016) 5 (1983) 95 9 23 26 27 54 110 143 283 397
2020-09-20 04:00 2.25 125 462 (2016) 5 (1983) 95 9 23 26 27 54 110 143 283 397
2020-09-20 03:30 2.25 125 462 (2016) 5 (1983) 95 9 23 26 27 54 110 143 283 397
2020-09-20 03:00 2.26 127 462 (2016) 5 (1983) 95 9 23 26 27 54 110 143 283 397
2020-09-20 02:30 2.26 127 462 (2016) 5 (1983) 95 9 23 26 27 54 110 143 283 397
2020-09-20 02:00 2.25 125 462 (2016) 5 (1983) 95 9 23 26 27 54 110 143 283 397
2020-09-20 01:30 2.25 125 462 (2016) 5 (1983) 95 9 23 26 27 54 110 143 283 397
2020-09-20 01:00 2.25 125 462 (2016) 5 (1983) 95 9 23 26 27 54 110 143 283 397
2020-09-20 00:30 2.26 127 462 (2016) 5 (1983) 95 9 23 26 27 54 110 143 283 397
2020-09-20 00:00 2.25 125 462 (2016) 5 (1983) 95 9 23 26 27 54 110 143 283 397
2020-09-19 23:30 2.26 127 710 (2016) 5 (1983) 100 9 20 26 27 42 117 121 274 533
2020-09-19 23:00 2.26 127 710 (2016) 5 (1983) 100 9 20 26 27 42 117 121 274 533
2020-09-19 22:30 2.26 127 710 (2016) 5 (1983) 100 9 20 26 27 42 117 121 274 533
2020-09-19 22:00 2.26 127 710 (2016) 5 (1983) 100 9 20 26 27 42 117 121 274 533
2020-09-19 21:30 2.26 127 710 (2016) 5 (1983) 100 9 20 26 27 42 117 121 274 533
2020-09-19 21:00 2.26 127 710 (2016) 5 (1983) 100 9 20 26 27 42 117 121 274 533
2020-09-19 20:30 2.26 127 710 (2016) 5 (1983) 100 9 20 26 27 42 117 121 274 533
2020-09-19 20:00 2.26 127 710 (2016) 5 (1983) 100 9 20 26 27 42 117 121 274 533
2020-09-19 19:30 2.26 127 710 (2016) 5 (1983) 100 9 20 26 27 42 117 121 274 533
2020-09-19 19:00 2.26 127 710 (2016) 5 (1983) 100 9 20 26 27 42 117 121 274 533
2020-09-19 18:30 2.26 127 710 (2016) 5 (1983) 100 9 20 26 27 42 117 121 274 533
2020-09-19 18:00 2.27 129 710 (2016) 5 (1983) 100 9 20 26 27 42 117 121 274 533
2020-09-19 17:30 2.27 129 710 (2016) 5 (1983) 100 9 20 26 27 42 117 121 274 533
2020-09-19 17:00 2.28 131 710 (2016) 5 (1983) 100 9 20 26 27 42 117 121 274 533
2020-09-19 16:30 2.27 129 710 (2016) 5 (1983) 100 9 20 26 27 42 117 121 274 533
2020-09-19 16:00 2.28 131 710 (2016) 5 (1983) 100 9 20 26 27 42 117 121 274 533
2020-09-19 15:30 2.28 131 710 (2016) 5 (1983) 100 9 20 26 27 42 117 121 274 533
2020-09-19 15:00 2.28 131 710 (2016) 5 (1983) 100 9 20 26 27 42 117 121 274 533
2020-09-19 14:30 2.28 131 710 (2016) 5 (1983) 100 9 20 26 27 42 117 121 274 533
2020-09-19 14:00 2.29 133 710 (2016) 5 (1983) 100 9 20 26 27 42 117 121 274 533
2020-09-19 13:30 2.28 131 710 (2016) 5 (1983) 100 9 20 26 27 42 117 121 274 533
2020-09-19 13:00 2.28 131 710 (2016) 5 (1983) 100 9 20 26 27 42 117 121 274 533
2020-09-19 12:30 2.28 131 710 (2016) 5 (1983) 100 9 20 26 27 42 117 121 274 533
2020-09-19 12:00 2.28 131 710 (2016) 5 (1983) 100 9 20 26 27 42 117 121 274 533
2020-09-19 11:30 2.28 131 710 (2016) 5 (1983) 100 9 20 26 27 42 117 121 274 533
2020-09-19 11:00 2.28 131 710 (2016) 5 (1983) 100 9 20 26 27 42 117 121 274 533
2020-09-19 10:30 2.28 131 710 (2016) 5 (1983) 100 9 20 26 27 42 117 121 274 533
2020-09-19 10:00 2.28 131 710 (2016) 5 (1983) 100 9 20 26 27 42 117 121 274 533
2020-09-19 09:30 2.27 129 710 (2016) 5 (1983) 100 9 20 26 27 42 117 121 274 533
2020-09-19 09:00 2.27 129 710 (2016) 5 (1983) 100 9 20 26 27 42 117 121 274 533
2020-09-19 08:30 2.27 129 710 (2016) 5 (1983) 100 9 20 26 27 42 117 121 274 533
2020-09-19 08:00 2.27 129 710 (2016) 5 (1983) 100 9 20 26 27 42 117 121 274 533
2020-09-19 07:30 2.27 129 710 (2016) 5 (1983) 100 9 20 26 27 42 117 121 274 533
2020-09-19 07:00 2.27 129 710 (2016) 5 (1983) 100 9 20 26 27 42 117 121 274 533
2020-09-19 06:30 2.27 129 710 (2016) 5 (1983) 100 9 20 26 27 42 117 121 274 533
2020-09-19 06:00 2.27 129 710 (2016) 5 (1983) 100 9 20 26 27 42 117 121 274 533
2020-09-19 05:30 2.27 129 710 (2016) 5 (1983) 100 9 20 26 27 42 117 121 274 533
2020-09-19 05:00 2.27 129 710 (2016) 5 (1983) 100 9 20 26 27 42 117 121 274 533
2020-09-19 04:30 2.27 129 710 (2016) 5 (1983) 100 9 20 26 27 42 117 121 274 533
2020-09-19 04:00 2.27 129 710 (2016) 5 (1983) 100 9 20 26 27 42 117 121 274 533
2020-09-19 03:30 2.27 129 710 (2016) 5 (1983) 100 9 20 26 27 42 117 121 274 533
2020-09-19 03:00 2.27 129 710 (2016) 5 (1983) 100 9 20 26 27 42 117 121 274 533
2020-09-19 02:30 2.27 129 710 (2016) 5 (1983) 100 9 20 26 27 42 117 121 274 533
2020-09-19 02:00 2.27 129 710 (2016) 5 (1983) 100 9 20 26 27 42 117 121 274 533
2020-09-19 01:30 2.27 129 710 (2016) 5 (1983) 100 9 20 26 27 42 117 121 274 533
2020-09-19 01:00 2.27 129 710 (2016) 5 (1983) 100 9 20 26 27 42 117 121 274 533
2020-09-19 00:30 2.28 131 710 (2016) 5 (1983) 100 9 20 26 27 42 117 121 274 533
2020-09-19 00:00 2.27 129 710 (2016) 5 (1983) 100 9 20 26 27 42 117 121 274 533
2020-09-18 23:30 2.28 131 1770 (2016) 5 (1983) 127 9 18 26 27 37 89 129 211 1050
2020-09-18 23:00 2.27 129 1770 (2016) 5 (1983) 127 9 18 26 27 37 89 129 211 1050
2020-09-18 22:30 2.28 131 1770 (2016) 5 (1983) 127 9 18 26 27 37 89 129 211 1050
2020-09-18 22:00 2.28 131 1770 (2016) 5 (1983) 127 9 18 26 27 37 89 129 211 1050
2020-09-18 21:30 2.28 131 1770 (2016) 5 (1983) 127 9 18 26 27 37 89 129 211 1050
2020-09-18 21:00 2.28 131 1770 (2016) 5 (1983) 127 9 18 26 27 37 89 129 211 1050
2020-09-18 20:30 2.28 131 1770 (2016) 5 (1983) 127 9 18 26 27 37 89 129 211 1050
2020-09-18 20:00 2.28 131 1770 (2016) 5 (1983) 127 9 18 26 27 37 89 129 211 1050
2020-09-18 19:30 2.28 131 1770 (2016) 5 (1983) 127 9 18 26 27 37 89 129 211 1050
2020-09-18 19:00 2.29 133 1770 (2016) 5 (1983) 127 9 18 26 27 37 89 129 211 1050
2020-09-18 18:30 2.29 133 1770 (2016) 5 (1983) 127 9 18 26 27 37 89 129 211 1050
2020-09-18 18:00 2.29 133 1770 (2016) 5 (1983) 127 9 18 26 27 37 89 129 211 1050
2020-09-18 17:30 2.29 133 1770 (2016) 5 (1983) 127 9 18 26 27 37 89 129 211 1050
2020-09-18 17:00 2.29 133 1770 (2016) 5 (1983) 127 9 18 26 27 37 89 129 211 1050
2020-09-18 16:30 2.30 135 1770 (2016) 5 (1983) 127 9 18 26 27 37 89 129 211 1050
2020-09-18 16:00 2.29 133 1770 (2016) 5 (1983) 127 9 18 26 27 37 89 129 211 1050
2020-09-18 15:30 2.30 135 1770 (2016) 5 (1983) 127 9 18 26 27 37 89 129 211 1050
2020-09-18 15:00 2.30 135 1770 (2016) 5 (1983) 127 9 18 26 27 37 89 129 211 1050
2020-09-18 14:30 2.30 135 1770 (2016) 5 (1983) 127 9 18 26 27 37 89 129 211 1050
2020-09-18 14:00 2.29 133 1770 (2016) 5 (1983) 127 9 18 26 27 37 89 129 211 1050
2020-09-18 13:30 2.29 133 1770 (2016) 5 (1983) 127 9 18 26 27 37 89 129 211 1050
2020-09-18 13:00 2.30 135 1770 (2016) 5 (1983) 127 9 18 26 27 37 89 129 211 1050
2020-09-18 12:30 2.30 135 1770 (2016) 5 (1983) 127 9 18 26 27 37 89 129 211 1050
2020-09-18 12:00 2.29 133 1770 (2016) 5 (1983) 127 9 18 26 27 37 89 129 211 1050
2020-09-18 11:30 2.30 135 1770 (2016) 5 (1983) 127 9 18 26 27 37 89 129 211 1050
2020-09-18 11:00 2.29 133 1770 (2016) 5 (1983) 127 9 18 26 27 37 89 129 211 1050
2020-09-18 10:30 2.29 133 1770 (2016) 5 (1983) 127 9 18 26 27 37 89 129 211 1050
2020-09-18 10:00 2.29 133 1770 (2016) 5 (1983) 127 9 18 26 27 37 89 129 211 1050
2020-09-18 09:30 2.30 135 1770 (2016) 5 (1983) 127 9 18 26 27 37 89 129 211 1050
2020-09-18 09:00 2.29 133 1770 (2016) 5 (1983) 127 9 18 26 27 37 89 129 211 1050
2020-09-18 08:30 2.29 133 1770 (2016) 5 (1983) 127 9 18 26 27 37 89 129 211 1050
2020-09-18 08:00 2.29 133 1770 (2016) 5 (1983) 127 9 18 26 27 37 89 129 211 1050
2020-09-18 07:30 2.29 133 1770 (2016) 5 (1983) 127 9 18 26 27 37 89 129 211 1050
2020-09-18 07:00 2.29 133 1770 (2016) 5 (1983) 127 9 18 26 27 37 89 129 211 1050
2020-09-18 06:30 2.29 133 1770 (2016) 5 (1983) 127 9 18 26 27 37 89 129 211 1050
2020-09-18 06:00 2.29 133 1770 (2016) 5 (1983) 127 9 18 26 27 37 89 129 211 1050
2020-09-18 05:30 2.29 133 1770 (2016) 5 (1983) 127 9 18 26 27 37 89 129 211 1050
2020-09-18 05:00 2.29 133 1770 (2016) 5 (1983) 127 9 18 26 27 37 89 129 211 1050
2020-09-18 04:30 2.29 133 1770 (2016) 5 (1983) 127 9 18 26 27 37 89 129 211 1050
2020-09-18 04:00 2.29 133 1770 (2016) 5 (1983) 127 9 18 26 27 37 89 129 211 1050
2020-09-18 03:30 2.29 133 1770 (2016) 5 (1983) 127 9 18 26 27 37 89 129 211 1050
2020-09-18 03:00 2.29 133 1770 (2016) 5 (1983) 127 9 18 26 27 37 89 129 211 1050
2020-09-18 02:30 2.29 133 1770 (2016) 5 (1983) 127 9 18 26 27 37 89 129 211 1050
2020-09-18 02:00 2.29 133 1770 (2016) 5 (1983) 127 9 18 26 27 37 89 129 211 1050
2020-09-18 01:30 2.29 133 1770 (2016) 5 (1983) 127 9 18 26 27 37 89 129 211 1050
2020-09-18 01:00 2.29 133 1770 (2016) 5 (1983) 127 9 18 26 27 37 89 129 211 1050
2020-09-18 00:30 2.29 133 1770 (2016) 5 (1983) 127 9 18 26 27 37 89 129 211 1050
2020-09-18 00:00 2.29 133 1770 (2016) 5 (1983) 127 9 18 26 27 37 89 129 211 1050
2020-09-17 23:30 2.29 133 3680 (2016) 5 (1983) 201 8 16 24 27 38 95 145 202 2090
2020-09-17 23:00 2.30 135 3680 (2016) 5 (1983) 201 8 16 24 27 38 95 145 202 2090
2020-09-17 22:30 2.29 133 3680 (2016) 5 (1983) 201 8 16 24 27 38 95 145 202 2090
2020-09-17 22:00 2.30 135 3680 (2016) 5 (1983) 201 8 16 24 27 38 95 145 202 2090
2020-09-17 21:30 2.30 135 3680 (2016) 5 (1983) 201 8 16 24 27 38 95 145 202 2090
2020-09-17 21:00 2.30 135 3680 (2016) 5 (1983) 201 8 16 24 27 38 95 145 202 2090
2020-09-17 20:30 2.30 135 3680 (2016) 5 (1983) 201 8 16 24 27 38 95 145 202 2090
2020-09-17 20:00 2.30 135 3680 (2016) 5 (1983) 201 8 16 24 27 38 95 145 202 2090
2020-09-17 19:30 2.30 135 3680 (2016) 5 (1983) 201 8 16 24 27 38 95 145 202 2090
2020-09-17 19:00 2.31 137 3680 (2016) 5 (1983) 201 8 16 24 27 38 95 145 202 2090
2020-09-17 18:30 2.31 137 3680 (2016) 5 (1983) 201 8 16 24 27 38 95 145 202 2090
2020-09-17 18:00 2.30 135 3680 (2016) 5 (1983) 201 8 16 24 27 38 95 145 202 2090
2020-09-17 17:30 2.31 137 3680 (2016) 5 (1983) 201 8 16 24 27 38 95 145 202 2090
2020-09-17 17:00 2.31 137 3680 (2016) 5 (1983) 201 8 16 24 27 38 95 145 202 2090
2020-09-17 16:30 2.32 139 3680 (2016) 5 (1983) 201 8 16 24 27 38 95 145 202 2090
2020-09-17 16:00 2.31 137 3680 (2016) 5 (1983) 201 8 16 24 27 38 95 145 202 2090
2020-09-17 15:30 2.31 137 3680 (2016) 5 (1983) 201 8 16 24 27 38 95 145 202 2090
2020-09-17 15:00 2.32 139 3680 (2016) 5 (1983) 201 8 16 24 27 38 95 145 202 2090
2020-09-17 14:30 2.32 139 3680 (2016) 5 (1983) 201 8 16 24 27 38 95 145 202 2090
2020-09-17 14:00 2.31 137 3680 (2016) 5 (1983) 201 8 16 24 27 38 95 145 202 2090
2020-09-17 13:30 2.32 139 3680 (2016) 5 (1983) 201 8 16 24 27 38 95 145 202 2090
2020-09-17 13:00 2.32 139 3680 (2016) 5 (1983) 201 8 16 24 27 38 95 145 202 2090
2020-09-17 12:30 2.32 139 3680 (2016) 5 (1983) 201 8 16 24 27 38 95 145 202 2090
2020-09-17 12:00 2.32 139 3680 (2016) 5 (1983) 201 8 16 24 27 38 95 145 202 2090
2020-09-17 11:30 2.32 139 3680 (2016) 5 (1983) 201 8 16 24 27 38 95 145 202 2090
2020-09-17 11:00 2.32 139 3680 (2016) 5 (1983) 201 8 16 24 27 38 95 145 202 2090
2020-09-17 10:30 2.32 139 3680 (2016) 5 (1983) 201 8 16 24 27 38 95 145 202 2090
2020-09-17 10:00 2.31 137 3680 (2016) 5 (1983) 201 8 16 24 27 38 95 145 202 2090
2020-09-17 09:30 2.31 137 3680 (2016) 5 (1983) 201 8 16 24 27 38 95 145 202 2090
2020-09-17 09:00 2.31 137 3680 (2016) 5 (1983) 201 8 16 24 27 38 95 145 202 2090
2020-09-17 08:30 2.30 135 3680 (2016) 5 (1983) 201 8 16 24 27 38 95 145 202 2090
2020-09-17 08:00 2.30 135 3680 (2016) 5 (1983) 201 8 16 24 27 38 95 145 202 2090
2020-09-17 07:30 2.31 137 3680 (2016) 5 (1983) 201 8 16 24 27 38 95 145 202 2090
2020-09-17 07:00 2.31 137 3680 (2016) 5 (1983) 201 8 16 24 27 38 95 145 202 2090
2020-09-17 06:30 2.31 137 3680 (2016) 5 (1983) 201 8 16 24 27 38 95 145 202 2090
2020-09-17 06:00 2.31 137 3680 (2016) 5 (1983) 201 8 16 24 27 38 95 145 202 2090
2020-09-17 05:30 2.31 137 3680 (2016) 5 (1983) 201 8 16 24 27 38 95 145 202 2090
2020-09-17 05:00 2.31 137 3680 (2016) 5 (1983) 201 8 16 24 27 38 95 145 202 2090
2020-09-17 04:30 2.31 137 3680 (2016) 5 (1983) 201 8 16 24 27 38 95 145 202 2090
2020-09-17 04:00 2.31 137 3680 (2016) 5 (1983) 201 8 16 24 27 38 95 145 202 2090
2020-09-17 03:30 2.31 137 3680 (2016) 5 (1983) 201 8 16 24 27 38 95 145 202 2090
2020-09-17 03:00 2.31 137 3680 (2016) 5 (1983) 201 8 16 24 27 38 95 145 202 2090
2020-09-17 02:30 2.31 137 3680 (2016) 5 (1983) 201 8 16 24 27 38 95 145 202 2090
2020-09-17 02:00 2.31 137 3680 (2016) 5 (1983) 201 8 16 24 27 38 95 145 202 2090
2020-09-17 01:30 2.31 137 3680 (2016) 5 (1983) 201 8 16 24 27 38 95 145 202 2090
2020-09-17 01:00 2.31 137 3680 (2016) 5 (1983) 201 8 16 24 27 38 95 145 202 2090
2020-09-17 00:30 2.31 137 3680 (2016) 5 (1983) 201 8 16 24 27 38 95 145 202 2090
2020-09-17 00:00 2.31 137 3680 (2016) 5 (1983) 201 8 16 24 27 38 95 145 202 2090
2020-09-16 23:30 2.32 139 489 (2016) 5 (1983) 90 8 17 22 26 43 87 114 284 477
2020-09-16 23:00 2.32 139 489 (2016) 5 (1983) 90 8 17 22 26 43 87 114 284 477
2020-09-16 22:30 2.32 139 489 (2016) 5 (1983) 90 8 17 22 26 43 87 114 284 477
2020-09-16 22:00 2.32 139 489 (2016) 5 (1983) 90 8 17 22 26 43 87 114 284 477
2020-09-16 21:30 2.32 139 489 (2016) 5 (1983) 90 8 17 22 26 43 87 114 284 477
2020-09-16 21:00 2.32 139 489 (2016) 5 (1983) 90 8 17 22 26 43 87 114 284 477
2020-09-16 20:30 2.32 139 489 (2016) 5 (1983) 90 8 17 22 26 43 87 114 284 477
2020-09-16 20:00 2.24 123 489 (2016) 5 (1983) 90 8 17 22 26 43 87 114 284 477
2020-09-16 19:30 2.33 141 489 (2016) 5 (1983) 90 8 17 22 26 43 87 114 284 477
2020-09-16 19:00 2.32 139 489 (2016) 5 (1983) 90 8 17 22 26 43 87 114 284 477
2020-09-16 18:30 2.33 141 489 (2016) 5 (1983) 90 8 17 22 26 43 87 114 284 477
2020-09-16 18:00 2.33 141 489 (2016) 5 (1983) 90 8 17 22 26 43 87 114 284 477
2020-09-16 17:30 2.33 141 489 (2016) 5 (1983) 90 8 17 22 26 43 87 114 284 477
2020-09-16 17:00 2.33 141 489 (2016) 5 (1983) 90 8 17 22 26 43 87 114 284 477
2020-09-16 16:30 2.33 141 489 (2016) 5 (1983) 90 8 17 22 26 43 87 114 284 477
2020-09-16 16:00 2.33 141 489 (2016) 5 (1983) 90 8 17 22 26 43 87 114 284 477
2020-09-16 15:30 2.34 143 489 (2016) 5 (1983) 90 8 17 22 26 43 87 114 284 477
2020-09-16 15:00 2.33 141 489 (2016) 5 (1983) 90 8 17 22 26 43 87 114 284 477
2020-09-16 14:30 2.33 141 489 (2016) 5 (1983) 90 8 17 22 26 43 87 114 284 477
2020-09-16 14:00 2.34 143 489 (2016) 5 (1983) 90 8 17 22 26 43 87 114 284 477
2020-09-16 13:30 2.34 143 489 (2016) 5 (1983) 90 8 17 22 26 43 87 114 284 477
2020-09-16 13:00 2.33 141 489 (2016) 5 (1983) 90 8 17 22 26 43 87 114 284 477
2020-09-16 12:30 2.34 143 489 (2016) 5 (1983) 90 8 17 22 26 43 87 114 284 477
2020-09-16 12:00 2.33 141 489 (2016) 5 (1983) 90 8 17 22 26 43 87 114 284 477
2020-09-16 11:30 2.33 141 489 (2016) 5 (1983) 90 8 17 22 26 43 87 114 284 477
2020-09-16 11:00 2.33 141 489 (2016) 5 (1983) 90 8 17 22 26 43 87 114 284 477
2020-09-16 10:30 2.33 141 489 (2016) 5 (1983) 90 8 17 22 26 43 87 114 284 477
2020-09-16 10:00 2.32 139 489 (2016) 5 (1983) 90 8 17 22 26 43 87 114 284 477
2020-09-16 09:30 2.33 141 489 (2016) 5 (1983) 90 8 17 22 26 43 87 114 284 477
2020-09-16 09:00 2.32 139 489 (2016) 5 (1983) 90 8 17 22 26 43 87 114 284 477
2020-09-16 08:30 2.32 139 489 (2016) 5 (1983) 90 8 17 22 26 43 87 114 284 477
2020-09-16 08:00 2.32 139 489 (2016) 5 (1983) 90 8 17 22 26 43 87 114 284 477
2020-09-16 07:30 2.32 139 489 (2016) 5 (1983) 90 8 17 22 26 43 87 114 284 477
2020-09-16 07:00 2.33 141 489 (2016) 5 (1983) 90 8 17 22 26 43 87 114 284 477
2020-09-16 06:30 2.32 139 489 (2016) 5 (1983) 90 8 17 22 26 43 87 114 284 477
2020-09-16 06:00 2.33 141 489 (2016) 5 (1983) 90 8 17 22 26 43 87 114 284 477
2020-09-16 05:30 2.33 141 489 (2016) 5 (1983) 90 8 17 22 26 43 87 114 284 477
2020-09-16 05:00 2.33 141 489 (2016) 5 (1983) 90 8 17 22 26 43 87 114 284 477
2020-09-16 04:30 2.32 139 489 (2016) 5 (1983) 90 8 17 22 26 43 87 114 284 477
2020-09-16 04:00 2.33 141 489 (2016) 5 (1983) 90 8 17 22 26 43 87 114 284 477
2020-09-16 03:30 2.32 139 489 (2016) 5 (1983) 90 8 17 22 26 43 87 114 284 477
2020-09-16 03:00 2.32 139 489 (2016) 5 (1983) 90 8 17 22 26 43 87 114 284 477
2020-09-16 02:30 2.32 139 489 (2016) 5 (1983) 90 8 17 22 26 43 87 114 284 477
2020-09-16 02:00 2.33 141 489 (2016) 5 (1983) 90 8 17 22 26 43 87 114 284 477
2020-09-16 01:30 2.33 141 489 (2016) 5 (1983) 90 8 17 22 26 43 87 114 284 477
2020-09-16 01:00 2.33 141 489 (2016) 5 (1983) 90 8 17 22 26 43 87 114 284 477
2020-09-16 00:30 2.33 141 489 (2016) 5 (1983) 90 8 17 22 26 43 87 114 284 477
2020-09-16 00:00 2.32 139 489 (2016) 5 (1983) 90 8 17 22 26 43 87 114 284 477

A total of 340 rows are displayed for years 1983 through 2019.